sensor_id;sensor_type;location;lat;lon;timestamp;P1;durP1;ratioP1;P2;durP2;ratioP2
83732;SDS011;73710;49.968;8.338;2024-03-23T05:06:00;0.32;;;0.20;;
83732;SDS011;73710;49.968;8.338;2024-03-23T05:08:25;1.80;;;0.70;;
83732;SDS011;73710;49.968;8.338;2024-03-23T05:10:51;0.65;;;0.40;;
83732;SDS011;73710;49.968;8.338;2024-03-23T05:13:16;0.90;;;0.43;;
83732;SDS011;73710;49.968;8.338;2024-03-23T05:15:41;2.63;;;0.80;;
83732;SDS011;73710;49.968;8.338;2024-03-23T05:18:07;0.95;;;0.50;;
83732;SDS011;73710;49.968;8.338;2024-03-23T05:20:32;2.53;;;1.20;;
83732;SDS011;73710;49.968;8.338;2024-03-23T05:22:57;1.10;;;0.52;;
83732;SDS011;73710;49.968;8.338;2024-03-23T05:25:23;1.88;;;0.73;;
83732;SDS011;73710;49.968;8.338;2024-03-23T05:27:48;2.50;;;1.25;;
83732;SDS011;73710;49.968;8.338;2024-03-23T05:30:14;1.70;;;1.33;;
83732;SDS011;73710;49.968;8.338;2024-03-23T05:32:39;1.63;;;0.90;;
83732;SDS011;73710;49.968;8.338;2024-03-23T05:35:07;0.90;;;0.50;;
83732;SDS011;73710;49.968;8.338;2024-03-23T05:37:33;5.05;;;0.75;;
83732;SDS011;73710;49.968;8.338;2024-03-23T05:39:59;1.15;;;0.65;;
83732;SDS011;73710;49.968;8.338;2024-03-23T05:42:25;1.80;;;0.40;;
83732;SDS011;73710;49.968;8.338;2024-03-23T05:44:50;0.93;;;0.77;;
83732;SDS011;73710;49.968;8.338;2024-03-23T05:47:17;3.13;;;1.35;;
83732;SDS011;73710;49.968;8.338;2024-03-23T05:49:42;3.17;;;1.10;;
83732;SDS011;73710;49.968;8.338;2024-03-23T05:52:08;5.40;;;0.68;;
83732;SDS011;73710;49.968;8.338;2024-03-23T05:54:34;3.17;;;1.23;;
83732;SDS011;73710;49.968;8.338;2024-03-23T05:56:59;1.35;;;0.52;;
83732;SDS011;73710;49.968;8.338;2024-03-23T05:59:25;1.35;;;0.85;;
83732;SDS011;73710;49.968;8.338;2024-03-23T06:01:52;0.98;;;0.43;;
83732;SDS011;73710;49.968;8.338;2024-03-23T06:04:20;0.50;;;0.40;;
83732;SDS011;73710;49.968;8.338;2024-03-23T06:06:46;0.80;;;0.40;;
83732;SDS011;73710;49.968;8.338;2024-03-23T06:09:12;0.57;;;0.40;;
83732;SDS011;73710;49.968;8.338;2024-03-23T06:11:37;1.27;;;0.30;;
83732;SDS011;73710;49.968;8.338;2024-03-23T06:14:03;1.00;;;0.57;;
83732;SDS011;73710;49.968;8.338;2024-03-23T06:16:29;0.85;;;0.32;;
83732;SDS011;73710;49.968;8.338;2024-03-23T06:18:55;0.35;;;0.17;;
83732;SDS011;73710;49.968;8.338;2024-03-23T06:21:21;1.92;;;0.73;;
83732;SDS011;73710;49.968;8.338;2024-03-23T06:23:50;0.70;;;0.45;;
83732;SDS011;73710;49.968;8.338;2024-03-23T06:26:20;0.55;;;0.25;;
83732;SDS011;73710;49.968;8.338;2024-03-23T06:28:46;0.60;;;0.50;;
83732;SDS011;73710;49.968;8.338;2024-03-23T06:31:12;1.23;;;0.52;;
83732;SDS011;73710;49.968;8.338;2024-03-23T06:33:37;0.77;;;0.43;;
83732;SDS011;73710;49.968;8.338;2024-03-23T06:36:06;1.48;;;0.70;;
83732;SDS011;73710;49.968;8.338;2024-03-23T06:40:59;1.95;;;0.75;;
83732;SDS011;73710;49.968;8.338;2024-03-23T06:43:27;2.35;;;0.95;;
83732;SDS011;73710;49.968;8.338;2024-03-23T06:45:53;0.20;;;0.10;;
83732;SDS011;73710;49.968;8.338;2024-03-23T06:48:20;1.25;;;0.30;;
83732;SDS011;73710;49.968;8.338;2024-03-23T06:50:45;0.85;;;0.63;;
83732;SDS011;73710;49.968;8.338;2024-03-23T06:53:12;0.55;;;0.40;;
83732;SDS011;73710;49.968;8.338;2024-03-23T06:55:38;0.95;;;0.40;;
83732;SDS011;73710;49.968;8.338;2024-03-23T06:58:03;0.75;;;0.17;;
83732;SDS011;73710;49.968;8.338;2024-03-23T07:00:29;1.95;;;0.70;;
83732;SDS011;73710;49.968;8.338;2024-03-23T07:02:55;1.17;;;0.75;;
83732;SDS011;73710;49.968;8.338;2024-03-23T07:05:20;7.63;;;0.83;;
83732;SDS011;73710;49.968;8.338;2024-03-23T07:07:45;2.88;;;1.02;;
83732;SDS011;73710;49.968;8.338;2024-03-23T07:10:10;2.17;;;0.70;;
83732;SDS011;73710;49.968;8.338;2024-03-23T07:12:36;0.88;;;0.50;;
83732;SDS011;73710;49.968;8.338;2024-03-23T07:15:02;2.50;;;1.00;;
83732;SDS011;73710;49.968;8.338;2024-03-23T07:17:27;1.15;;;0.80;;
83732;SDS011;73710;49.968;8.338;2024-03-23T07:19:53;0.50;;;0.40;;
83732;SDS011;73710;49.968;8.338;2024-03-23T07:22:18;2.53;;;0.40;;
83732;SDS011;73710;49.968;8.338;2024-03-23T07:24:44;1.67;;;0.45;;
83732;SDS011;73710;49.968;8.338;2024-03-23T07:27:09;2.55;;;0.85;;
83732;SDS011;73710;49.968;8.338;2024-03-23T07:29:35;1.67;;;0.70;;
83732;SDS011;73710;49.968;8.338;2024-03-23T07:32:01;2.10;;;0.75;;
83732;SDS011;73710;49.968;8.338;2024-03-23T07:34:26;3.93;;;0.73;;
83732;SDS011;73710;49.968;8.338;2024-03-23T07:36:52;2.47;;;1.25;;
83732;SDS011;73710;49.968;8.338;2024-03-23T07:39:17;5.03;;;0.80;;
83732;SDS011;73710;49.968;8.338;2024-03-23T07:41:45;1.13;;;0.70;;
83732;SDS011;73710;49.968;8.338;2024-03-23T07:44:11;1.05;;;0.57;;
83732;SDS011;73710;49.968;8.338;2024-03-23T07:46:36;4.03;;;1.30;;
83732;SDS011;73710;49.968;8.338;2024-03-23T07:49:04;1.55;;;0.65;;
83732;SDS011;73710;49.968;8.338;2024-03-23T07:51:29;1.50;;;1.17;;
83732;SDS011;73710;49.968;8.338;2024-03-23T07:53:55;2.20;;;1.05;;
83732;SDS011;73710;49.968;8.338;2024-03-23T07:56:20;5.57;;;1.35;;
83732;SDS011;73710;49.968;8.338;2024-03-23T07:58:46;3.42;;;2.30;;
83732;SDS011;73710;49.968;8.338;2024-03-23T08:01:13;2.20;;;1.08;;
83732;SDS011;73710;49.968;8.338;2024-03-23T08:03:45;4.85;;;2.45;;
83732;SDS011;73710;49.968;8.338;2024-03-23T08:08:41;2.13;;;1.15;;
83732;SDS011;73710;49.968;8.338;2024-03-23T08:11:07;2.50;;;2.10;;
83732;SDS011;73710;49.968;8.338;2024-03-23T08:13:33;3.63;;;1.63;;
83732;SDS011;73710;49.968;8.338;2024-03-23T08:16:00;4.78;;;2.05;;
83732;SDS011;73710;49.968;8.338;2024-03-23T08:18:26;2.40;;;1.67;;
83732;SDS011;73710;49.968;8.338;2024-03-23T08:20:58;3.72;;;1.23;;
83732;SDS011;73710;49.968;8.338;2024-03-23T08:23:25;3.90;;;1.85;;
83732;SDS011;73710;49.968;8.338;2024-03-23T08:25:52;3.65;;;1.60;;
83732;SDS011;73710;49.968;8.338;2024-03-23T08:28:22;7.75;;;1.83;;
83732;SDS011;73710;49.968;8.338;2024-03-23T08:30:47;2.33;;;1.25;;
83732;SDS011;73710;49.968;8.338;2024-03-23T08:33:13;6.32;;;2.10;;
83732;SDS011;73710;49.968;8.338;2024-03-23T08:35:38;3.90;;;1.90;;
83732;SDS011;73710;49.968;8.338;2024-03-23T08:38:04;2.67;;;1.20;;
83732;SDS011;73710;49.968;8.338;2024-03-23T08:40:29;3.80;;;1.30;;
83732;SDS011;73710;49.968;8.338;2024-03-23T08:42:54;4.07;;;1.47;;
83732;SDS011;73710;49.968;8.338;2024-03-23T08:45:20;2.53;;;1.13;;
83732;SDS011;73710;49.968;8.338;2024-03-23T08:47:45;3.83;;;1.00;;
83732;SDS011;73710;49.968;8.338;2024-03-23T08:50:10;2.15;;;1.17;;
83732;SDS011;73710;49.968;8.338;2024-03-23T08:52:36;2.53;;;1.30;;
83732;SDS011;73710;49.968;8.338;2024-03-23T08:55:01;1.95;;;1.13;;
83732;SDS011;73710;49.968;8.338;2024-03-23T08:57:26;3.70;;;1.50;;
83732;SDS011;73710;49.968;8.338;2024-03-23T08:59:52;4.27;;;1.33;;
83732;SDS011;73710;49.968;8.338;2024-03-23T09:02:17;6.23;;;2.00;;
83732;SDS011;73710;49.968;8.338;2024-03-23T09:04:43;8.23;;;1.45;;
83732;SDS011;73710;49.968;8.338;2024-03-23T09:07:09;3.55;;;1.50;;
83732;SDS011;73710;49.968;8.338;2024-03-23T09:09:34;3.23;;;1.20;;
83732;SDS011;73710;49.968;8.338;2024-03-23T09:12:00;1.80;;;0.88;;
83732;SDS011;73710;49.968;8.338;2024-03-23T09:14:25;1.97;;;1.03;;
83732;SDS011;73710;49.968;8.338;2024-03-23T09:16:51;3.40;;;1.38;;
83732;SDS011;73710;49.968;8.338;2024-03-23T09:19:17;8.07;;;1.40;;
83732;SDS011;73710;49.968;8.338;2024-03-23T09:21:42;9.25;;;1.30;;
83732;SDS011;73710;49.968;8.338;2024-03-23T09:24:08;1.20;;;0.55;;
83732;SDS011;73710;49.968;8.338;2024-03-23T09:26:33;1.30;;;0.73;;
83732;SDS011;73710;49.968;8.338;2024-03-23T09:28:59;4.75;;;1.13;;
83732;SDS011;73710;49.968;8.338;2024-03-23T09:31:25;4.28;;;0.90;;
83732;SDS011;73710;49.968;8.338;2024-03-23T09:33:50;6.75;;;1.30;;
83732;SDS011;73710;49.968;8.338;2024-03-23T09:36:16;2.40;;;1.00;;
83732;SDS011;73710;49.968;8.338;2024-03-23T09:38:41;8.77;;;1.17;;
83732;SDS011;73710;49.968;8.338;2024-03-23T09:41:07;3.53;;;1.17;;
83732;SDS011;73710;49.968;8.338;2024-03-23T09:43:33;4.65;;;0.73;;
83732;SDS011;73710;49.968;8.338;2024-03-23T09:45:59;2.17;;;0.73;;
83732;SDS011;73710;49.968;8.338;2024-03-23T09:48:26;5.03;;;1.10;;
83732;SDS011;73710;49.968;8.338;2024-03-23T09:50:52;2.00;;;0.30;;
83732;SDS011;73710;49.968;8.338;2024-03-23T09:53:17;2.10;;;0.73;;
83732;SDS011;73710;49.968;8.338;2024-03-23T09:55:43;1.77;;;0.50;;
83732;SDS011;73710;49.968;8.338;2024-03-23T09:58:13;1.73;;;0.57;;
83732;SDS011;73710;49.968;8.338;2024-03-23T10:00:40;3.13;;;0.80;;
83732;SDS011;73710;49.968;8.338;2024-03-23T10:03:05;1.58;;;0.70;;
83732;SDS011;73710;49.968;8.338;2024-03-23T10:05:32;2.13;;;0.52;;
83732;SDS011;73710;49.968;8.338;2024-03-23T10:07:59;1.70;;;0.60;;
83732;SDS011;73710;49.968;8.338;2024-03-23T10:10:25;3.60;;;0.70;;
83732;SDS011;73710;49.968;8.338;2024-03-23T10:12:51;1.58;;;0.85;;
83732;SDS011;73710;49.968;8.338;2024-03-23T10:15:21;2.40;;;1.02;;
83732;SDS011;73710;49.968;8.338;2024-03-23T10:17:50;2.90;;;0.52;;
83732;SDS011;73710;49.968;8.338;2024-03-23T10:20:19;3.28;;;0.55;;
83732;SDS011;73710;49.968;8.338;2024-03-23T10:22:47;3.08;;;0.45;;
83732;SDS011;73710;49.968;8.338;2024-03-23T10:25:13;6.05;;;1.15;;
83732;SDS011;73710;49.968;8.338;2024-03-23T10:27:39;1.67;;;0.52;;
83732;SDS011;73710;49.968;8.338;2024-03-23T10:30:11;0.75;;;0.40;;
83732;SDS011;73710;49.968;8.338;2024-03-23T10:32:39;0.80;;;0.35;;
83732;SDS011;73710;49.968;8.338;2024-03-23T10:35:15;1.08;;;0.17;;
83732;SDS011;73710;49.968;8.338;2024-03-23T10:37:43;5.07;;;0.82;;
83732;SDS011;73710;49.968;8.338;2024-03-23T10:40:10;0.20;;;0.10;;
83732;SDS011;73710;49.968;8.338;2024-03-23T10:42:37;0.55;;;0.20;;
83732;SDS011;73710;49.968;8.338;2024-03-23T10:45:04;1.85;;;0.45;;
83732;SDS011;73710;49.968;8.338;2024-03-23T10:47:31;5.80;;;0.43;;
83732;SDS011;73710;49.968;8.338;2024-03-23T10:49:57;0.88;;;0.43;;
83732;SDS011;73710;49.968;8.338;2024-03-23T10:52:22;2.08;;;0.65;;
83732;SDS011;73710;49.968;8.338;2024-03-23T10:54:48;5.47;;;0.63;;
83732;SDS011;73710;49.968;8.338;2024-03-23T10:57:17;4.00;;;0.80;;
83732;SDS011;73710;49.968;8.338;2024-03-23T10:59:46;1.00;;;0.38;;
83732;SDS011;73710;49.968;8.338;2024-03-23T11:02:19;3.13;;;0.82;;
83732;SDS011;73710;49.968;8.338;2024-03-23T11:04:45;7.78;;;0.75;;
83732;SDS011;73710;49.968;8.338;2024-03-23T11:07:29;1.20;;;0.95;;
83732;SDS011;73710;49.968;8.338;2024-03-23T11:09:55;2.85;;;0.70;;
83732;SDS011;73710;49.968;8.338;2024-03-23T11:15:00;1.05;;;0.43;;
83732;SDS011;73710;49.968;8.338;2024-03-23T11:17:36;0.35;;;0.20;;
83732;SDS011;73710;49.968;8.338;2024-03-23T11:20:02;0.30;;;0.10;;
83732;SDS011;73710;49.968;8.338;2024-03-23T11:22:42;0.40;;;0.30;;
83732;SDS011;73710;49.968;8.338;2024-03-23T11:25:19;1.92;;;0.30;;
83732;SDS011;73710;49.968;8.338;2024-03-23T11:27:46;0.30;;;0.20;;
83732;SDS011;73710;49.968;8.338;2024-03-23T11:30:16;0.22;;;0.13;;
83732;SDS011;73710;49.968;8.338;2024-03-23T11:35:09;0.30;;;0.30;;
83732;SDS011;73710;49.968;8.338;2024-03-23T11:37:35;0.50;;;0.50;;
83732;SDS011;73710;49.968;8.338;2024-03-23T11:40:16;1.30;;;0.40;;
83732;SDS011;73710;49.968;8.338;2024-03-23T11:42:42;1.98;;;0.57;;
83732;SDS011;73710;49.968;8.338;2024-03-23T11:45:09;4.78;;;0.52;;
83732;SDS011;73710;49.968;8.338;2024-03-23T11:47:34;1.40;;;0.68;;
83732;SDS011;73710;49.968;8.338;2024-03-23T11:50:00;1.80;;;0.90;;
83732;SDS011;73710;49.968;8.338;2024-03-23T11:52:25;3.83;;;1.30;;
83732;SDS011;73710;49.968;8.338;2024-03-23T11:54:51;3.95;;;1.08;;
83732;SDS011;73710;49.968;8.338;2024-03-23T11:57:16;4.75;;;0.88;;
83732;SDS011;73710;49.968;8.338;2024-03-23T11:59:42;2.92;;;0.85;;
83732;SDS011;73710;49.968;8.338;2024-03-23T12:02:12;2.95;;;1.23;;
83732;SDS011;73710;49.968;8.338;2024-03-23T12:04:41;5.50;;;1.20;;
83732;SDS011;73710;49.968;8.338;2024-03-23T12:09:39;4.55;;;0.93;;
83732;SDS011;73710;49.968;8.338;2024-03-23T12:12:15;4.40;;;1.35;;
83732;SDS011;73710;49.968;8.338;2024-03-23T12:14:44;1.63;;;0.57;;
83732;SDS011;73710;49.968;8.338;2024-03-23T12:17:14;3.67;;;0.80;;
83732;SDS011;73710;49.968;8.338;2024-03-23T12:19:40;0.60;;;0.47;;
83732;SDS011;73710;49.968;8.338;2024-03-23T12:22:07;0.63;;;0.30;;
83732;SDS011;73710;49.968;8.338;2024-03-23T12:24:33;1.75;;;0.70;;
83732;SDS011;73710;49.968;8.338;2024-03-23T12:27:03;6.05;;;0.73;;
83732;SDS011;73710;49.968;8.338;2024-03-23T12:29:32;4.72;;;1.17;;
83732;SDS011;73710;49.968;8.338;2024-03-23T12:31:59;2.47;;;0.40;;
83732;SDS011;73710;49.968;8.338;2024-03-23T12:34:25;0.80;;;0.45;;
83732;SDS011;73710;49.968;8.338;2024-03-23T12:36:51;3.72;;;0.45;;
83732;SDS011;73710;49.968;8.338;2024-03-23T12:39:16;6.95;;;0.60;;
83732;SDS011;73710;49.968;8.338;2024-03-23T12:41:42;6.35;;;0.98;;
83732;SDS011;73710;49.968;8.338;2024-03-23T12:44:07;3.15;;;0.60;;
83732;SDS011;73710;49.968;8.338;2024-03-23T12:46:36;2.70;;;0.40;;
83732;SDS011;73710;49.968;8.338;2024-03-23T12:49:02;0.75;;;0.30;;
83732;SDS011;73710;49.968;8.338;2024-03-23T12:51:28;1.73;;;0.43;;
83732;SDS011;73710;49.968;8.338;2024-03-23T12:53:53;0.15;;;0.00;;
83732;SDS011;73710;49.968;8.338;2024-03-23T12:56:19;0.40;;;0.20;;
83732;SDS011;73710;49.968;8.338;2024-03-23T12:58:44;0.63;;;0.30;;
83732;SDS011;73710;49.968;8.338;2024-03-23T13:01:09;10.40;;;0.87;;
83732;SDS011;73710;49.968;8.338;2024-03-23T13:03:35;0.77;;;0.10;;
83732;SDS011;73710;49.968;8.338;2024-03-23T13:06:00;1.85;;;0.10;;
83732;SDS011;73710;49.968;8.338;2024-03-23T13:08:26;0.00;;;0.00;;
83732;SDS011;73710;49.968;8.338;2024-03-23T13:10:51;0.13;;;0.03;;
83732;SDS011;73710;49.968;8.338;2024-03-23T13:13:17;0.68;;;0.15;;
83732;SDS011;73710;49.968;8.338;2024-03-23T13:15:42;0.00;;;0.00;;
83732;SDS011;73710;49.968;8.338;2024-03-23T13:18:14;4.55;;;0.40;;
83732;SDS011;73710;49.968;8.338;2024-03-23T13:20:40;0.30;;;0.10;;
83732;SDS011;73710;49.968;8.338;2024-03-23T13:23:05;0.52;;;0.28;;
83732;SDS011;73710;49.968;8.338;2024-03-23T13:25:31;0.70;;;0.15;;
83732;SDS011;73710;49.968;8.338;2024-03-23T13:27:56;0.30;;;0.20;;
83732;SDS011;73710;49.968;8.338;2024-03-23T13:30:24;0.00;;;0.00;;
83732;SDS011;73710;49.968;8.338;2024-03-23T13:33:02;0.00;;;0.00;;
83732;SDS011;73710;49.968;8.338;2024-03-23T13:35:29;4.38;;;0.52;;
83732;SDS011;73710;49.968;8.338;2024-03-23T13:37:54;0.20;;;0.10;;
83732;SDS011;73710;49.968;8.338;2024-03-23T13:40:19;0.10;;;0.10;;
83732;SDS011;73710;49.968;8.338;2024-03-23T13:42:45;1.02;;;0.38;;
83732;SDS011;73710;49.968;8.338;2024-03-23T13:45:10;1.50;;;0.10;;
83732;SDS011;73710;49.968;8.338;2024-03-23T13:47:37;0.00;;;0.00;;
83732;SDS011;73710;49.968;8.338;2024-03-23T13:50:02;0.00;;;0.00;;
83732;SDS011;73710;49.968;8.338;2024-03-23T13:52:28;0.80;;;0.40;;
83732;SDS011;73710;49.968;8.338;2024-03-23T13:54:55;0.73;;;0.20;;
83732;SDS011;73710;49.968;8.338;2024-03-23T13:57:21;0.00;;;0.00;;
83732;SDS011;73710;49.968;8.338;2024-03-23T13:59:48;0.70;;;0.25;;
83732;SDS011;73710;49.968;8.338;2024-03-23T14:02:14;4.75;;;0.28;;
83732;SDS011;73710;49.968;8.338;2024-03-23T14:04:39;0.52;;;0.03;;
83732;SDS011;73710;49.968;8.338;2024-03-23T14:07:05;0.03;;;0.00;;
83732;SDS011;73710;49.968;8.338;2024-03-23T14:09:32;1.15;;;0.50;;
83732;SDS011;73710;49.968;8.338;2024-03-23T14:11:58;2.33;;;0.28;;
83732;SDS011;73710;49.968;8.338;2024-03-23T14:14:25;0.22;;;0.10;;
83732;SDS011;73710;49.968;8.338;2024-03-23T14:16:50;0.10;;;0.10;;
83732;SDS011;73710;49.968;8.338;2024-03-23T14:19:16;0.55;;;0.10;;
83732;SDS011;73710;49.968;8.338;2024-03-23T14:21:41;0.73;;;0.30;;
83732;SDS011;73710;49.968;8.338;2024-03-23T14:24:09;0.93;;;0.40;;
83732;SDS011;73710;49.968;8.338;2024-03-23T14:26:35;1.98;;;0.10;;
83732;SDS011;73710;49.968;8.338;2024-03-23T14:29:00;0.05;;;0.00;;
83732;SDS011;73710;49.968;8.338;2024-03-23T14:31:26;0.28;;;0.03;;
83732;SDS011;73710;49.968;8.338;2024-03-23T14:33:51;1.20;;;0.22;;
83732;SDS011;73710;49.968;8.338;2024-03-23T14:36:16;0.40;;;0.10;;
83732;SDS011;73710;49.968;8.338;2024-03-23T14:38:48;0.70;;;0.20;;
83732;SDS011;73710;49.968;8.338;2024-03-23T14:41:14;0.75;;;0.13;;
83732;SDS011;73710;49.968;8.338;2024-03-23T14:43:40;0.30;;;0.10;;
83732;SDS011;73710;49.968;8.338;2024-03-23T14:46:15;1.08;;;0.25;;
83732;SDS011;73710;49.968;8.338;2024-03-23T14:48:44;0.35;;;0.15;;
83732;SDS011;73710;49.968;8.338;2024-03-23T14:51:11;0.40;;;0.10;;
83732;SDS011;73710;49.968;8.338;2024-03-23T14:53:37;0.35;;;0.10;;
83732;SDS011;73710;49.968;8.338;2024-03-23T14:56:07;1.65;;;0.20;;
83732;SDS011;73710;49.968;8.338;2024-03-23T14:58:34;0.30;;;0.22;;
83732;SDS011;73710;49.968;8.338;2024-03-23T15:01:09;0.40;;;0.00;;
83732;SDS011;73710;49.968;8.338;2024-03-23T15:03:38;1.02;;;0.10;;
83732;SDS011;73710;49.968;8.338;2024-03-23T15:06:04;1.08;;;0.28;;
83732;SDS011;73710;49.968;8.338;2024-03-23T15:08:30;1.27;;;0.20;;
83732;SDS011;73710;49.968;8.338;2024-03-23T15:10:58;1.10;;;0.43;;
83732;SDS011;73710;49.968;8.338;2024-03-23T15:13:24;2.20;;;0.40;;
83732;SDS011;73710;49.968;8.338;2024-03-23T15:15:50;0.30;;;0.10;;
83732;SDS011;73710;49.968;8.338;2024-03-23T15:18:17;1.17;;;0.20;;
83732;SDS011;73710;49.968;8.338;2024-03-23T15:20:57;0.40;;;0.20;;
83732;SDS011;73710;49.968;8.338;2024-03-23T15:23:34;0.20;;;0.10;;
83732;SDS011;73710;49.968;8.338;2024-03-23T15:26:01;0.10;;;0.10;;
83732;SDS011;73710;49.968;8.338;2024-03-23T15:28:27;0.13;;;0.00;;
83732;SDS011;73710;49.968;8.338;2024-03-23T15:31:19;0.20;;;0.00;;
83732;SDS011;73710;49.968;8.338;2024-03-23T15:33:45;0.10;;;0.10;;
83732;SDS011;73710;49.968;8.338;2024-03-23T15:36:10;0.43;;;0.17;;
83732;SDS011;73710;49.968;8.338;2024-03-23T15:38:36;0.22;;;0.10;;
83732;SDS011;73710;49.968;8.338;2024-03-23T15:41:03;0.70;;;0.10;;
83732;SDS011;73710;49.968;8.338;2024-03-23T15:43:29;0.90;;;0.20;;
83732;SDS011;73710;49.968;8.338;2024-03-23T15:45:55;0.00;;;0.00;;
83732;SDS011;73710;49.968;8.338;2024-03-23T15:48:25;0.15;;;0.10;;
83732;SDS011;73710;49.968;8.338;2024-03-23T15:50:54;0.30;;;0.10;;
83732;SDS011;73710;49.968;8.338;2024-03-23T15:53:21;0.82;;;0.20;;
83732;SDS011;73710;49.968;8.338;2024-03-23T15:55:53;2.00;;;0.30;;
83732;SDS011;73710;49.968;8.338;2024-03-23T15:58:26;0.22;;;0.05;;
83732;SDS011;73710;49.968;8.338;2024-03-23T16:00:56;0.20;;;0.10;;
83732;SDS011;73710;49.968;8.338;2024-03-23T16:03:25;0.82;;;0.13;;
83732;SDS011;73710;49.968;8.338;2024-03-23T16:05:54;0.40;;;0.15;;
83732;SDS011;73710;49.968;8.338;2024-03-23T16:08:20;0.30;;;0.17;;
83732;SDS011;73710;49.968;8.338;2024-03-23T16:10:46;0.63;;;0.20;;
83732;SDS011;73710;49.968;8.338;2024-03-23T16:13:12;2.25;;;0.10;;
83732;SDS011;73710;49.968;8.338;2024-03-23T16:15:37;1.27;;;0.10;;
83732;SDS011;73710;49.968;8.338;2024-03-23T16:18:03;2.15;;;0.28;;
83732;SDS011;73710;49.968;8.338;2024-03-23T16:20:28;0.68;;;0.17;;
83732;SDS011;73710;49.968;8.338;2024-03-23T16:22:54;0.40;;;0.10;;
83732;SDS011;73710;49.968;8.338;2024-03-23T16:25:19;0.98;;;0.15;;
83732;SDS011;73710;49.968;8.338;2024-03-23T16:27:44;0.00;;;0.00;;
83732;SDS011;73710;49.968;8.338;2024-03-23T16:30:10;0.17;;;0.10;;
83732;SDS011;73710;49.968;8.338;2024-03-23T16:32:36;0.20;;;0.10;;
83732;SDS011;73710;49.968;8.338;2024-03-23T16:35:03;1.08;;;0.63;;
83732;SDS011;73710;49.968;8.338;2024-03-23T16:37:29;0.57;;;0.10;;
83732;SDS011;73710;49.968;8.338;2024-03-23T16:39:54;0.63;;;0.22;;
83732;SDS011;73710;49.968;8.338;2024-03-23T16:42:20;0.50;;;0.10;;
83732;SDS011;73710;49.968;8.338;2024-03-23T16:44:46;1.45;;;0.17;;
83732;SDS011;73710;49.968;8.338;2024-03-23T16:47:11;0.73;;;0.10;;
83732;SDS011;73710;49.968;8.338;2024-03-23T16:49:37;1.42;;;0.30;;
83732;SDS011;73710;49.968;8.338;2024-03-23T16:52:02;0.17;;;0.00;;
83732;SDS011;73710;49.968;8.338;2024-03-23T16:54:29;0.43;;;0.15;;
83732;SDS011;73710;49.968;8.338;2024-03-23T16:56:55;0.10;;;0.08;;
83732;SDS011;73710;49.968;8.338;2024-03-23T16:59:20;0.10;;;0.03;;
83732;SDS011;73710;49.968;8.338;2024-03-23T17:01:45;0.60;;;0.30;;
83732;SDS011;73710;49.968;8.338;2024-03-23T17:04:10;1.00;;;0.07;;
83732;SDS011;73710;49.968;8.338;2024-03-23T17:06:37;1.38;;;0.13;;
83732;SDS011;73710;49.968;8.338;2024-03-23T17:09:04;0.10;;;0.10;;
83732;SDS011;73710;49.968;8.338;2024-03-23T17:14:00;0.50;;;0.20;;
83732;SDS011;73710;49.968;8.338;2024-03-23T17:16:25;0.90;;;0.22;;
83732;SDS011;73710;49.968;8.338;2024-03-23T17:18:55;0.10;;;0.10;;
83732;SDS011;73710;49.968;8.338;2024-03-23T17:21:20;0.82;;;0.20;;
83732;SDS011;73710;49.968;8.338;2024-03-23T17:23:46;0.30;;;0.10;;
83732;SDS011;73710;49.968;8.338;2024-03-23T17:26:12;1.02;;;0.40;;
83732;SDS011;73710;49.968;8.338;2024-03-23T17:28:38;0.25;;;0.15;;
83732;SDS011;73710;49.968;8.338;2024-03-23T17:31:03;0.08;;;0.08;;
83732;SDS011;73710;49.968;8.338;2024-03-23T17:33:28;0.35;;;0.15;;
83732;SDS011;73710;49.968;8.338;2024-03-23T17:35:54;0.10;;;0.00;;
83732;SDS011;73710;49.968;8.338;2024-03-23T17:38:19;0.98;;;0.20;;
83732;SDS011;73710;49.968;8.338;2024-03-23T17:40:47;0.13;;;0.03;;
83732;SDS011;73710;49.968;8.338;2024-03-23T17:43:13;0.30;;;0.05;;
83732;SDS011;73710;49.968;8.338;2024-03-23T17:45:38;0.10;;;0.00;;
83732;SDS011;73710;49.968;8.338;2024-03-23T17:48:06;0.20;;;0.10;;
83732;SDS011;73710;49.968;8.338;2024-03-23T17:50:32;0.10;;;0.03;;
83732;SDS011;73710;49.968;8.338;2024-03-23T17:52:57;4.60;;;0.77;;
83732;SDS011;73710;49.968;8.338;2024-03-23T17:55:25;0.80;;;0.52;;
83732;SDS011;73710;49.968;8.338;2024-03-23T17:57:50;0.30;;;0.30;;
83732;SDS011;73710;49.968;8.338;2024-03-23T18:00:16;0.03;;;0.00;;
83732;SDS011;73710;49.968;8.338;2024-03-23T18:02:41;0.43;;;0.10;;
83732;SDS011;73710;49.968;8.338;2024-03-23T18:05:08;0.20;;;0.10;;
83732;SDS011;73710;49.968;8.338;2024-03-23T18:07:33;0.30;;;0.10;;
83732;SDS011;73710;49.968;8.338;2024-03-23T18:09:59;0.40;;;0.20;;
83732;SDS011;73710;49.968;8.338;2024-03-23T18:12:24;0.68;;;0.30;;
83732;SDS011;73710;49.968;8.338;2024-03-23T18:14:50;0.85;;;0.30;;
83732;SDS011;73710;49.968;8.338;2024-03-23T18:17:16;1.08;;;0.30;;
83732;SDS011;73710;49.968;8.338;2024-03-23T18:19:41;1.33;;;0.30;;
83732;SDS011;73710;49.968;8.338;2024-03-23T18:22:06;1.53;;;0.50;;
83732;SDS011;73710;49.968;8.338;2024-03-23T18:24:32;0.73;;;0.38;;
83732;SDS011;73710;49.968;8.338;2024-03-23T18:26:57;1.90;;;0.57;;
83732;SDS011;73710;49.968;8.338;2024-03-23T18:29:23;0.77;;;0.53;;
83732;SDS011;73710;49.968;8.338;2024-03-23T18:31:48;2.25;;;0.93;;
83732;SDS011;73710;49.968;8.338;2024-03-23T18:34:15;0.60;;;0.10;;
83732;SDS011;73710;49.968;8.338;2024-03-23T18:36:40;2.20;;;0.90;;
83732;SDS011;73710;49.968;8.338;2024-03-23T18:39:07;6.57;;;2.78;;
83732;SDS011;73710;49.968;8.338;2024-03-23T18:41:32;4.47;;;1.83;;
83732;SDS011;73710;49.968;8.338;2024-03-23T18:43:58;0.65;;;0.52;;
83732;SDS011;73710;49.968;8.338;2024-03-23T18:46:23;0.50;;;0.28;;
83732;SDS011;73710;49.968;8.338;2024-03-23T18:48:49;0.77;;;0.25;;
83732;SDS011;73710;49.968;8.338;2024-03-23T18:51:15;0.63;;;0.25;;
83732;SDS011;73710;49.968;8.338;2024-03-23T18:53:40;0.20;;;0.20;;
83732;SDS011;73710;49.968;8.338;2024-03-23T18:56:06;0.75;;;0.20;;
83732;SDS011;73710;49.968;8.338;2024-03-23T18:58:34;0.13;;;0.10;;
83732;SDS011;73710;49.968;8.338;2024-03-23T19:01:00;0.73;;;0.30;;
83732;SDS011;73710;49.968;8.338;2024-03-23T19:05:56;0.35;;;0.32;;
83732;SDS011;73710;49.968;8.338;2024-03-23T19:08:23;0.35;;;0.20;;
83732;SDS011;73710;49.968;8.338;2024-03-23T19:10:52;1.20;;;0.55;;
83732;SDS011;73710;49.968;8.338;2024-03-23T19:15:45;0.85;;;0.40;;
83732;SDS011;73710;49.968;8.338;2024-03-23T19:18:10;0.10;;;0.10;;
83732;SDS011;73710;49.968;8.338;2024-03-23T19:20:36;0.00;;;0.00;;
83732;SDS011;73710;49.968;8.338;2024-03-23T19:23:01;0.17;;;0.17;;
83732;SDS011;73710;49.968;8.338;2024-03-23T19:25:27;0.03;;;0.03;;
83732;SDS011;73710;49.968;8.338;2024-03-23T19:27:52;0.00;;;0.00;;
83732;SDS011;73710;49.968;8.338;2024-03-23T19:30:18;1.55;;;0.20;;
83732;SDS011;73710;49.968;8.338;2024-03-23T19:32:46;0.13;;;0.10;;
83732;SDS011;73710;49.968;8.338;2024-03-23T19:35:12;0.03;;;0.00;;
83732;SDS011;73710;49.968;8.338;2024-03-23T19:37:39;0.10;;;0.00;;
83732;SDS011;73710;49.968;8.338;2024-03-23T19:40:06;0.45;;;0.20;;
83732;SDS011;73710;49.968;8.338;2024-03-23T19:42:32;0.00;;;0.00;;
83732;SDS011;73710;49.968;8.338;2024-03-23T19:44:57;0.60;;;0.38;;
83732;SDS011;73710;49.968;8.338;2024-03-23T19:47:23;0.00;;;0.00;;
83732;SDS011;73710;49.968;8.338;2024-03-23T19:49:49;0.35;;;0.15;;
83732;SDS011;73710;49.968;8.338;2024-03-23T19:52:15;0.65;;;0.20;;
83732;SDS011;73710;49.968;8.338;2024-03-23T19:54:40;1.55;;;0.60;;
83732;SDS011;73710;49.968;8.338;2024-03-23T19:57:06;0.80;;;0.40;;
83732;SDS011;73710;49.968;8.338;2024-03-23T19:59:31;0.40;;;0.20;;
83732;SDS011;73710;49.968;8.338;2024-03-23T20:01:57;0.35;;;0.20;;
83732;SDS011;73710;49.968;8.338;2024-03-23T20:04:23;0.68;;;0.20;;
83732;SDS011;73710;49.968;8.338;2024-03-23T20:06:48;1.60;;;0.60;;
83732;SDS011;73710;49.968;8.338;2024-03-23T20:09:14;0.45;;;0.38;;